sensor_id;sensor_type;location;lat;lon;timestamp;pressure;altitude;pressure_sealevel;temperature;humidity
77739;BME280;66904;59.926;30.404;2024-03-23T00:58:28;99200.47;;;4.73;74.05
77739;BME280;66904;59.926;30.404;2024-03-23T01:03:39;99194.38;;;4.73;73.55
77739;BME280;66904;59.926;30.404;2024-03-23T01:08:49;99186.53;;;4.73;73.31
77739;BME280;66904;59.926;30.404;2024-03-23T01:14:00;99168.19;;;4.73;73.12
77739;BME280;66904;59.926;30.404;2024-03-23T01:19:11;99159.16;;;4.77;73.93
77739;BME280;66904;59.926;30.404;2024-03-23T01:24:22;99148.31;;;4.70;73.79
77739;BME280;66904;59.926;30.404;2024-03-23T01:29:32;99138.31;;;4.75;73.60
77739;BME280;66904;59.926;30.404;2024-03-23T01:34:43;99134.63;;;4.78;73.35
77739;BME280;66904;59.926;30.404;2024-03-23T01:39:54;99121.66;;;4.76;73.75
77739;BME280;66904;59.926;30.404;2024-03-23T01:45:09;99106.88;;;4.75;74.10
77739;BME280;66904;59.926;30.404;2024-03-23T01:50:22;99099.63;;;4.79;73.99
77739;BME280;66904;59.926;30.404;2024-03-23T01:55:34;99097.50;;;4.84;73.54
77739;BME280;66904;59.926;30.404;2024-03-23T02:00:45;99083.56;;;4.83;73.82
77739;BME280;66904;59.926;30.404;2024-03-23T02:05:56;99075.56;;;4.85;73.87
77739;BME280;66904;59.926;30.404;2024-03-23T02:11:06;99065.44;;;4.91;73.99
77739;BME280;66904;59.926;30.404;2024-03-23T02:16:17;99050.09;;;4.87;74.12
77739;BME280;66904;59.926;30.404;2024-03-23T02:21:28;99058.44;;;4.92;73.78
77739;BME280;66904;59.926;30.404;2024-03-23T02:26:42;99048.44;;;4.97;73.51
77739;BME280;66904;59.926;30.404;2024-03-23T02:31:53;99049.97;;;4.99;74.09
77739;BME280;66904;59.926;30.404;2024-03-23T02:37:10;99046.41;;;5.00;74.06
77739;BME280;66904;59.926;30.404;2024-03-23T02:42:21;99034.13;;;5.01;73.98
77739;BME280;66904;59.926;30.404;2024-03-23T02:47:32;99032.09;;;5.04;74.04
77739;BME280;66904;59.926;30.404;2024-03-23T02:52:43;99026.16;;;5.13;73.97
77739;BME280;66904;59.926;30.404;2024-03-23T02:57:53;99019.34;;;5.22;74.30
77739;BME280;66904;59.926;30.404;2024-03-23T03:03:04;99018.25;;;5.25;74.17
77739;BME280;66904;59.926;30.404;2024-03-23T03:08:15;99012.78;;;5.28;73.88
77739;BME280;66904;59.926;30.404;2024-03-23T03:13:26;99011.72;;;5.30;73.93
77739;BME280;66904;59.926;30.404;2024-03-23T03:18:36;99005.97;;;5.36;73.62
77739;BME280;66904;59.926;30.404;2024-03-23T03:23:47;99001.06;;;5.43;73.68
77739;BME280;66904;59.926;30.404;2024-03-23T03:29:00;98994.84;;;5.44;74.05
77739;BME280;66904;59.926;30.404;2024-03-23T03:34:11;98998.06;;;5.47;74.03
77739;BME280;66904;59.926;30.404;2024-03-23T03:39:22;98983.97;;;5.59;73.96
77739;BME280;66904;59.926;30.404;2024-03-23T03:44:33;98973.81;;;5.66;74.00
77739;BME280;66904;59.926;30.404;2024-03-23T03:49:44;98971.38;;;5.74;73.71
77739;BME280;66904;59.926;30.404;2024-03-23T03:55:01;98967.03;;;5.84;73.81
77739;BME280;66904;59.926;30.404;2024-03-23T04:00:15;98974.44;;;5.90;73.86
77739;BME280;66904;59.926;30.404;2024-03-23T04:05:26;98963.66;;;5.93;73.24
77739;BME280;66904;59.926;30.404;2024-03-23T04:10:37;98962.63;;;5.96;73.60
77739;BME280;66904;59.926;30.404;2024-03-23T04:15:47;98957.94;;;5.99;73.91
77739;BME280;66904;59.926;30.404;2024-03-23T04:20:58;98960.88;;;6.06;73.96
77739;BME280;66904;59.926;30.404;2024-03-23T04:26:09;98958.94;;;6.08;73.75
77739;BME280;66904;59.926;30.404;2024-03-23T04:31:20;98963.81;;;6.12;74.02
77739;BME280;66904;59.926;30.404;2024-03-23T04:36:30;98972.97;;;6.18;73.79
77739;BME280;66904;59.926;30.404;2024-03-23T04:41:41;98971.56;;;6.14;73.59
77739;BME280;66904;59.926;30.404;2024-03-23T04:46:52;98972.06;;;6.08;74.29
77739;BME280;66904;59.926;30.404;2024-03-23T04:52:04;98981.38;;;6.12;73.71
77739;BME280;66904;59.926;30.404;2024-03-23T04:57:15;98991.13;;;6.10;73.79
77739;BME280;66904;59.926;30.404;2024-03-23T05:02:27;98990.34;;;6.09;73.63
77739;BME280;66904;59.926;30.404;2024-03-23T05:07:38;98993.75;;;6.10;73.84
77739;BME280;66904;59.926;30.404;2024-03-23T05:12:48;98996.84;;;6.15;73.56
77739;BME280;66904;59.926;30.404;2024-03-23T05:17:59;98994.75;;;6.09;73.42
77739;BME280;66904;59.926;30.404;2024-03-23T05:23:10;98988.84;;;6.16;74.24
77739;BME280;66904;59.926;30.404;2024-03-23T05:28:24;98991.34;;;6.18;73.82
77739;BME280;66904;59.926;30.404;2024-03-23T05:33:38;98996.22;;;6.22;74.23
77739;BME280;66904;59.926;30.404;2024-03-23T05:38:49;98987.09;;;6.27;72.91
77739;BME280;66904;59.926;30.404;2024-03-23T05:43:59;98990.19;;;6.32;72.91
77739;BME280;66904;59.926;30.404;2024-03-23T05:49:11;98991.09;;;6.42;73.24
77739;BME280;66904;59.926;30.404;2024-03-23T05:54:22;98985.03;;;6.51;72.76
77739;BME280;66904;59.926;30.404;2024-03-23T05:59:33;98992.66;;;6.54;72.67
77739;BME280;66904;59.926;30.404;2024-03-23T06:04:45;98990.19;;;6.52;73.29
77739;BME280;66904;59.926;30.404;2024-03-23T06:09:56;98992.09;;;6.50;73.21
77739;BME280;66904;59.926;30.404;2024-03-23T06:15:08;99009.13;;;6.56;72.52
77739;BME280;66904;59.926;30.404;2024-03-23T06:20:22;98995.03;;;6.57;73.17
77739;BME280;66904;59.926;30.404;2024-03-23T06:25:33;99000.19;;;6.68;72.70
77739;BME280;66904;59.926;30.404;2024-03-23T06:30:44;99004.50;;;6.69;72.47
77739;BME280;66904;59.926;30.404;2024-03-23T06:35:55;98995.53;;;6.71;72.66
77739;BME280;66904;59.926;30.404;2024-03-23T06:41:06;99008.97;;;6.78;72.78
77739;BME280;66904;59.926;30.404;2024-03-23T06:46:16;99003.13;;;6.74;72.69
77739;BME280;66904;59.926;30.404;2024-03-23T06:51:27;99013.94;;;6.81;71.99
77739;BME280;66904;59.926;30.404;2024-03-23T06:56:38;99010.94;;;6.86;72.58
77739;BME280;66904;59.926;30.404;2024-03-23T07:01:49;99012.56;;;6.87;72.50
77739;BME280;66904;59.926;30.404;2024-03-23T07:07:01;99008.88;;;6.89;72.54
77739;BME280;66904;59.926;30.404;2024-03-23T07:12:14;99004.03;;;6.94;71.93
77739;BME280;66904;59.926;30.404;2024-03-23T07:17:25;99012.75;;;6.95;72.27
77739;BME280;66904;59.926;30.404;2024-03-23T07:22:36;99023.00;;;6.98;72.47
77739;BME280;66904;59.926;30.404;2024-03-23T07:27:46;99025.19;;;6.93;72.54
77739;BME280;66904;59.926;30.404;2024-03-23T07:32:57;99042.38;;;6.97;72.58
77739;BME280;66904;59.926;30.404;2024-03-23T07:38:08;99038.59;;;6.90;71.46
77739;BME280;66904;59.926;30.404;2024-03-23T07:43:19;99042.84;;;6.81;72.28
77739;BME280;66904;59.926;30.404;2024-03-23T07:48:30;99046.00;;;6.75;72.67
77739;BME280;66904;59.926;30.404;2024-03-23T07:53:43;99046.66;;;6.67;72.48
77739;BME280;66904;59.926;30.404;2024-03-23T07:58:54;99040.81;;;6.64;72.47
77739;BME280;66904;59.926;30.404;2024-03-23T08:04:05;99056.16;;;6.59;72.51
77739;BME280;66904;59.926;30.404;2024-03-23T08:09:16;99075.63;;;6.56;72.30
77739;BME280;66904;59.926;30.404;2024-03-23T08:14:27;99069.16;;;6.40;72.25
77739;BME280;66904;59.926;30.404;2024-03-23T08:19:38;99065.31;;;6.23;72.40
77739;BME280;66904;59.926;30.404;2024-03-23T08:24:48;99086.19;;;6.24;71.82
77739;BME280;66904;59.926;30.404;2024-03-23T08:30:00;99101.16;;;6.13;72.50
77739;BME280;66904;59.926;30.404;2024-03-23T08:35:10;99101.19;;;6.02;72.42
77739;BME280;66904;59.926;30.404;2024-03-23T08:40:21;99106.81;;;5.97;72.08
77739;BME280;66904;59.926;30.404;2024-03-23T08:45:32;99117.94;;;5.90;72.22
77739;BME280;66904;59.926;30.404;2024-03-23T08:50:43;99108.88;;;5.71;72.97
77739;BME280;66904;59.926;30.404;2024-03-23T08:55:55;99122.22;;;5.80;72.27
77739;BME280;66904;59.926;30.404;2024-03-23T09:01:10;99123.19;;;5.79;72.52
77739;BME280;66904;59.926;30.404;2024-03-23T09:06:21;99115.31;;;5.79;72.55
77739;BME280;66904;59.926;30.404;2024-03-23T09:11:32;99126.00;;;5.98;72.87
77739;BME280;66904;59.926;30.404;2024-03-23T09:16:42;99131.41;;;5.96;72.38
77739;BME280;66904;59.926;30.404;2024-03-23T09:21:53;99153.09;;;5.98;72.15
77739;BME280;66904;59.926;30.404;2024-03-23T09:27:04;99144.50;;;5.85;71.62
77739;BME280;66904;59.926;30.404;2024-03-23T09:32:15;99155.75;;;5.87;72.35
77739;BME280;66904;59.926;30.404;2024-03-23T09:37:26;99166.47;;;5.95;72.08
77739;BME280;66904;59.926;30.404;2024-03-23T09:42:37;99172.91;;;5.91;71.78
77739;BME280;66904;59.926;30.404;2024-03-23T09:47:48;99174.84;;;5.89;71.80
77739;BME280;66904;59.926;30.404;2024-03-23T09:53:01;99182.13;;;5.86;72.39
77739;BME280;66904;59.926;30.404;2024-03-23T09:58:17;99200.09;;;5.79;71.55
77739;BME280;66904;59.926;30.404;2024-03-23T10:03:28;99196.28;;;5.72;71.42
77739;BME280;66904;59.926;30.404;2024-03-23T10:08:39;99209.50;;;5.70;72.43
77739;BME280;66904;59.926;30.404;2024-03-23T10:13:50;99208.81;;;5.57;72.38
77739;BME280;66904;59.926;30.404;2024-03-23T10:19:00;99212.03;;;5.50;72.23
77739;BME280;66904;59.926;30.404;2024-03-23T10:24:11;99212.03;;;5.50;71.97
77739;BME280;66904;59.926;30.404;2024-03-23T10:29:23;99210.84;;;5.43;71.73
77739;BME280;66904;59.926;30.404;2024-03-23T10:34:37;99215.47;;;5.39;72.10
77739;BME280;66904;59.926;30.404;2024-03-23T10:39:48;99230.97;;;5.42;71.81
77739;BME280;66904;59.926;30.404;2024-03-23T10:44:59;99243.25;;;5.42;71.87
77739;BME280;66904;59.926;30.404;2024-03-23T10:50:10;99248.84;;;5.37;72.11
77739;BME280;66904;59.926;30.404;2024-03-23T10:55:22;99244.19;;;5.30;72.32
77739;BME280;66904;59.926;30.404;2024-03-23T11:00:34;99246.91;;;5.28;72.42
77739;BME280;66904;59.926;30.404;2024-03-23T11:05:46;99255.72;;;5.27;71.91
77739;BME280;66904;59.926;30.404;2024-03-23T11:11:19;99256.94;;;5.34;72.36
77739;BME280;66904;59.926;30.404;2024-03-23T11:16:30;99257.91;;;5.33;72.62
77739;BME280;66904;59.926;30.404;2024-03-23T11:21:53;99265.41;;;5.38;72.33
77739;BME280;66904;59.926;30.404;2024-03-23T11:27:16;99256.59;;;5.39;72.04
77739;BME280;66904;59.926;30.404;2024-03-23T11:32:26;99262.81;;;5.49;71.73
77739;BME280;66904;59.926;30.404;2024-03-23T11:37:37;99280.94;;;5.52;71.61
77739;BME280;66904;59.926;30.404;2024-03-23T11:42:55;99273.41;;;5.47;72.02
77739;BME280;66904;59.926;30.404;2024-03-23T11:48:14;99292.38;;;5.40;71.97
77739;BME280;66904;59.926;30.404;2024-03-23T11:53:25;99286.50;;;5.36;72.25
77739;BME280;66904;59.926;30.404;2024-03-23T11:58:39;99288.53;;;5.33;72.01
77739;BME280;66904;59.926;30.404;2024-03-23T12:03:50;99292.47;;;5.38;72.28
77739;BME280;66904;59.926;30.404;2024-03-23T12:09:07;99296.63;;;5.41;71.92
77739;BME280;66904;59.926;30.404;2024-03-23T12:14:18;99306.97;;;5.31;71.62
77739;BME280;66904;59.926;30.404;2024-03-23T12:19:28;99289.09;;;5.25;71.61
77739;BME280;66904;59.926;30.404;2024-03-23T12:24:39;99304.97;;;5.35;71.74
77739;BME280;66904;59.926;30.404;2024-03-23T12:29:55;99300.22;;;5.40;72.15
77739;BME280;66904;59.926;30.404;2024-03-23T12:35:06;99313.47;;;5.49;71.78
77739;BME280;66904;59.926;30.404;2024-03-23T12:40:19;99310.72;;;5.40;70.97
77739;BME280;66904;59.926;30.404;2024-03-23T12:45:30;99325.34;;;5.31;71.25
77739;BME280;66904;59.926;30.404;2024-03-23T12:50:40;99327.84;;;5.33;71.88
77739;BME280;66904;59.926;30.404;2024-03-23T12:55:51;99333.81;;;5.35;71.30
77739;BME280;66904;59.926;30.404;2024-03-23T13:01:02;99324.63;;;5.29;71.11
77739;BME280;66904;59.926;30.404;2024-03-23T13:06:13;99343.22;;;5.37;71.06
77739;BME280;66904;59.926;30.404;2024-03-23T13:11:24;99334.56;;;5.37;70.80
77739;BME280;66904;59.926;30.404;2024-03-23T13:16:35;99349.16;;;5.28;70.79
77739;BME280;66904;59.926;30.404;2024-03-23T13:21:45;99348.84;;;5.33;69.99
77739;BME280;66904;59.926;30.404;2024-03-23T13:26:57;99346.81;;;5.36;70.57
77739;BME280;66904;59.926;30.404;2024-03-23T13:32:08;99350.16;;;5.38;70.07
77739;BME280;66904;59.926;30.404;2024-03-23T13:37:19;99366.13;;;5.35;70.70
77739;BME280;66904;59.926;30.404;2024-03-23T13:42:30;99360.78;;;5.37;70.41
77739;BME280;66904;59.926;30.404;2024-03-23T13:47:41;99366.72;;;5.39;70.12
77739;BME280;66904;59.926;30.404;2024-03-23T13:52:51;99368.41;;;5.40;70.55
77739;BME280;66904;59.926;30.404;2024-03-23T13:58:02;99371.50;;;5.45;70.02
77739;BME280;66904;59.926;30.404;2024-03-23T14:03:14;99379.88;;;5.50;69.83
77739;BME280;66904;59.926;30.404;2024-03-23T14:08:24;99399.91;;;5.51;69.88
77739;BME280;66904;59.926;30.404;2024-03-23T14:13:35;99397.50;;;5.48;70.07
77739;BME280;66904;59.926;30.404;2024-03-23T14:18:47;99410.53;;;5.60;68.88
77739;BME280;66904;59.926;30.404;2024-03-23T14:23:58;99397.53;;;5.59;67.82
77739;BME280;66904;59.926;30.404;2024-03-23T14:29:09;99435.91;;;5.49;68.62
77739;BME280;66904;59.926;30.404;2024-03-23T14:34:19;99401.81;;;5.49;68.04
77739;BME280;66904;59.926;30.404;2024-03-23T14:39:30;99407.88;;;5.49;67.73
77739;BME280;66904;59.926;30.404;2024-03-23T14:44:41;99407.28;;;5.46;68.80
77739;BME280;66904;59.926;30.404;2024-03-23T14:49:52;99416.81;;;5.47;68.71
77739;BME280;66904;59.926;30.404;2024-03-23T14:55:03;99411.69;;;5.45;67.95
77739;BME280;66904;59.926;30.404;2024-03-23T15:00:14;99411.59;;;5.47;69.03
77739;BME280;66904;59.926;30.404;2024-03-23T15:05:25;99426.78;;;5.65;68.59
77739;BME280;66904;59.926;30.404;2024-03-23T15:10:36;99437.50;;;5.62;68.86
77739;BME280;66904;59.926;30.404;2024-03-23T15:15:47;99437.50;;;5.62;68.53
77739;BME280;66904;59.926;30.404;2024-03-23T15:21:00;99434.97;;;5.61;68.98
77739;BME280;66904;59.926;30.404;2024-03-23T15:26:16;99429.34;;;5.54;68.48
77739;BME280;66904;59.926;30.404;2024-03-23T15:31:27;99428.97;;;5.48;68.18
77739;BME280;66904;59.926;30.404;2024-03-23T15:36:38;99443.16;;;5.45;68.68
77739;BME280;66904;59.926;30.404;2024-03-23T15:41:51;99461.97;;;5.39;68.29
77739;BME280;66904;59.926;30.404;2024-03-23T15:47:05;99467.44;;;5.36;68.99
77739;BME280;66904;59.926;30.404;2024-03-23T15:52:15;99471.44;;;5.29;68.88
77739;BME280;66904;59.926;30.404;2024-03-23T15:57:26;99476.00;;;5.38;68.84
77739;BME280;66904;59.926;30.404;2024-03-23T16:02:37;99480.53;;;5.36;68.53
77739;BME280;66904;59.926;30.404;2024-03-23T16:07:48;99490.19;;;5.36;69.32
77739;BME280;66904;59.926;30.404;2024-03-23T16:12:58;99497.53;;;5.31;69.11
77739;BME280;66904;59.926;30.404;2024-03-23T16:18:09;99501.22;;;5.28;68.30
77739;BME280;66904;59.926;30.404;2024-03-23T16:23:20;99498.03;;;5.12;68.66
77739;BME280;66904;59.926;30.404;2024-03-23T16:28:32;99512.69;;;5.14;69.07
77739;BME280;66904;59.926;30.404;2024-03-23T16:33:44;99516.59;;;5.09;69.12
77739;BME280;66904;59.926;30.404;2024-03-23T16:38:55;99523.31;;;5.13;68.84
77739;BME280;66904;59.926;30.404;2024-03-23T16:44:05;99518.16;;;5.11;68.90
77739;BME280;66904;59.926;30.404;2024-03-23T16:49:16;99528.75;;;5.10;69.08
77739;BME280;66904;59.926;30.404;2024-03-23T16:54:27;99531.38;;;5.10;69.24
77739;BME280;66904;59.926;30.404;2024-03-23T16:59:39;99535.56;;;5.12;69.20
77739;BME280;66904;59.926;30.404;2024-03-23T17:04:49;99534.91;;;5.21;69.87
77739;BME280;66904;59.926;30.404;2024-03-23T17:10:00;99542.22;;;5.29;69.18
77739;BME280;66904;59.926;30.404;2024-03-23T17:15:11;99529.97;;;5.30;69.71
77739;BME280;66904;59.926;30.404;2024-03-23T17:20:22;99530.47;;;5.35;69.53
77739;BME280;66904;59.926;30.404;2024-03-23T17:25:33;99538.00;;;5.39;69.35
77739;BME280;66904;59.926;30.404;2024-03-23T17:30:44;99543.25;;;5.39;69.25
77739;BME280;66904;59.926;30.404;2024-03-23T17:35:57;99550.44;;;5.48;69.83
77739;BME280;66904;59.926;30.404;2024-03-23T17:41:08;99552.00;;;5.51;69.31
77739;BME280;66904;59.926;30.404;2024-03-23T17:46:22;99552.84;;;5.51;69.19
77739;BME280;66904;59.926;30.404;2024-03-23T17:51:33;99551.91;;;5.52;69.18
77739;BME280;66904;59.926;30.404;2024-03-23T17:56:45;99560.50;;;5.54;69.00
77739;BME280;66904;59.926;30.404;2024-03-23T18:01:56;99562.63;;;5.49;69.20
77739;BME280;66904;59.926;30.404;2024-03-23T18:07:07;99574.78;;;5.50;69.39
77739;BME280;66904;59.926;30.404;2024-03-23T18:12:18;99579.38;;;5.59;69.84
77739;BME280;66904;59.926;30.404;2024-03-23T18:17:30;99578.84;;;5.54;69.23
77739;BME280;66904;59.926;30.404;2024-03-23T18:22:41;99585.34;;;5.61;70.00
77739;BME280;66904;59.926;30.404;2024-03-23T18:27:53;99590.72;;;5.60;69.68
77739;BME280;66904;59.926;30.404;2024-03-23T18:33:04;99595.84;;;5.61;69.92
77739;BME280;66904;59.926;30.404;2024-03-23T18:38:15;99599.31;;;5.62;69.56
77739;BME280;66904;59.926;30.404;2024-03-23T18:43:26;99597.75;;;5.59;69.56
77739;BME280;66904;59.926;30.404;2024-03-23T18:48:37;99591.75;;;5.57;69.29
77739;BME280;66904;59.926;30.404;2024-03-23T18:53:48;99591.53;;;5.60;69.24
77739;BME280;66904;59.926;30.404;2024-03-23T18:58:58;99610.50;;;5.64;69.58
77739;BME280;66904;59.926;30.404;2024-03-23T19:04:09;99608.00;;;5.62;70.02
77739;BME280;66904;59.926;30.404;2024-03-23T19:09:22;99603.22;;;5.56;69.36
77739;BME280;66904;59.926;30.404;2024-03-23T19:14:35;99621.22;;;5.61;69.56
77739;BME280;66904;59.926;30.404;2024-03-23T19:19:46;99623.97;;;5.59;70.07
77739;BME280;66904;59.926;30.404;2024-03-23T19:24:57;99623.75;;;5.62;70.29
77739;BME280;66904;59.926;30.404;2024-03-23T19:30:10;99630.88;;;5.60;70.14
77739;BME280;66904;59.926;30.404;2024-03-23T19:35:21;99639.50;;;5.62;69.87
77739;BME280;66904;59.926;30.404;2024-03-23T19:40:32;99636.25;;;5.59;70.04
77739;BME280;66904;59.926;30.404;2024-03-23T19:45:43;99635.41;;;5.58;70.08
77739;BME280;66904;59.926;30.404;2024-03-23T19:50:58;99635.41;;;5.58;70.13
77739;BME280;66904;59.926;30.404;2024-03-23T19:56:09;99634.06;;;5.53;69.64
77739;BME280;66904;59.926;30.404;2024-03-23T20:01:20;99641.53;;;5.46;69.67
77739;BME280;66904;59.926;30.404;2024-03-23T20:06:34;99639.84;;;5.45;69.90
77739;BME280;66904;59.926;30.404;2024-03-23T20:11:46;99636.38;;;5.45;70.30
77739;BME280;66904;59.926;30.404;2024-03-23T20:16:57;99642.25;;;5.48;69.90
77739;BME280;66904;59.926;30.404;2024-03-23T20:22:07;99644.47;;;5.42;69.90
77739;BME280;66904;59.926;30.404;2024-03-23T20:27:18;99638.91;;;5.34;70.31
77739;BME280;66904;59.926;30.404;2024-03-23T20:32:29;99652.97;;;5.33;70.55
77739;BME280;66904;59.926;30.404;2024-03-23T20:37:40;99653.47;;;5.38;70.78
77739;BME280;66904;59.926;30.404;2024-03-23T20:42:52;99655.66;;;5.44;70.34
77739;BME280;66904;59.926;30.404;2024-03-23T20:48:04;99658.09;;;5.47;70.00
77739;BME280;66904;59.926;30.404;2024-03-23T20:53:15;99673.94;;;5.45;69.78
77739;BME280;66904;59.926;30.404;2024-03-23T20:58:27;99661.25;;;5.39;69.80
77739;BME280;66904;59.926;30.404;2024-03-23T21:03:38;99656.09;;;5.38;70.41
77739;BME280;66904;59.926;30.404;2024-03-23T21:08:49;99654.44;;;5.37;70.15
77739;BME280;66904;59.926;30.404;2024-03-23T21:13:59;99640.81;;;5.32;70.29
77739;BME280;66904;59.926;30.404;2024-03-23T21:19:10;99662.91;;;5.40;70.32
77739;BME280;66904;59.926;30.404;2024-03-23T21:24:22;99660.28;;;5.40;69.71
77739;BME280;66904;59.926;30.404;2024-03-23T21:29:34;99662.31;;;5.37;69.66
77739;BME280;66904;59.926;30.404;2024-03-23T21:34:44;99663.47;;;5.33;69.97
77739;BME280;66904;59.926;30.404;2024-03-23T21:39:55;99658.84;;;5.36;70.01
77739;BME280;66904;59.926;30.404;2024-03-23T21:45:06;99655.69;;;5.31;69.84
77739;BME280;66904;59.926;30.404;2024-03-23T21:50:17;99652.13;;;5.32;69.88
77739;BME280;66904;59.926;30.404;2024-03-23T21:55:28;99651.09;;;5.22;70.42
77739;BME280;66904;59.926;30.404;2024-03-23T22:00:39;99659.25;;;5.17;69.93
77739;BME280;66904;59.926;30.404;2024-03-23T22:05:56;99642.72;;;5.17;70.84
77739;BME280;66904;59.926;30.404;2024-03-23T22:11:07;99650.16;;;5.23;70.32
77739;BME280;66904;59.926;30.404;2024-03-23T22:16:17;99651.72;;;5.26;70.35
77739;BME280;66904;59.926;30.404;2024-03-23T22:21:28;99656.66;;;5.30;70.01
77739;BME280;66904;59.926;30.404;2024-03-23T22:26:39;99667.47;;;5.26;70.22
77739;BME280;66904;59.926;30.404;2024-03-23T22:31:50;99670.16;;;5.24;70.26
77739;BME280;66904;59.926;30.404;2024-03-23T22:37:00;99673.22;;;5.18;70.25
77739;BME280;66904;59.926;30.404;2024-03-23T22:42:11;99670.50;;;5.19;70.40
77739;BME280;66904;59.926;30.404;2024-03-23T22:47:22;99673.22;;;5.18;70.52
77739;BME280;66904;59.926;30.404;2024-03-23T22:52:32;99675.00;;;5.17;70.19
77739;BME280;66904;59.926;30.404;2024-03-23T22:57:43;99654.88;;;5.18;70.41
77739;BME280;66904;59.926;30.404;2024-03-23T23:02:54;99660.22;;;5.16;70.16
77739;BME280;66904;59.926;30.404;2024-03-23T23:08:05;99654.38;;;5.13;70.45
77739;BME280;66904;59.926;30.404;2024-03-23T23:13:16;99650.25;;;5.09;70.14
77739;BME280;66904;59.926;30.404;2024-03-23T23:18:27;99654.78;;;5.07;70.16
77739;BME280;66904;59.926;30.404;2024-03-23T23:23:38;99648.91;;;5.03;70.63
77739;BME280;66904;59.926;30.404;2024-03-23T23:28:49;99638.00;;;4.97;70.59
77739;BME280;66904;59.926;30.404;2024-03-23T23:34:00;99639.88;;;4.95;70.52
77739;BME280;66904;59.926;30.404;2024-03-23T23:39:10;99649.94;;;5.01;70.33
77739;BME280;66904;59.926;30.404;2024-03-23T23:44:21;99643.13;;;4.98;70.02
77739;BME280;66904;59.926;30.404;2024-03-23T23:49:32;99656.78;;;5.03;70.29
77739;BME280;66904;59.926;30.404;2024-03-23T23:54:43;99656.44;;;5.08;70.33
77739;BME280;66904;59.926;30.404;2024-03-23T23:59:53;99658.00;;;5.10;70.21
